createdAt,value
2018-02-22T00:01:09.560Z,102192.05
2018-02-22T00:03:37.086Z,102195.50
2018-02-22T00:06:04.983Z,102193.69
2018-02-22T00:08:32.846Z,102191.66
2018-02-22T00:11:00.426Z,102189.39
2018-02-22T00:13:27.972Z,102189.23
2018-02-22T00:15:55.521Z,102187.61
2018-02-22T00:18:23.075Z,102186.48
2018-02-22T00:20:50.611Z,102185.75
2018-02-22T00:23:19.459Z,102187.45
2018-02-22T00:25:47.091Z,102183.97
2018-02-22T00:28:14.870Z,102187.56
2018-02-22T00:30:42.412Z,102189.50
2018-02-22T00:33:09.987Z,102185.17
2018-02-22T00:35:37.533Z,102191.67
2018-02-22T00:38:05.075Z,102186.91
2018-02-22T00:40:32.621Z,102185.75
2018-02-22T00:43:00.191Z,102189.58
2018-02-22T00:45:27.737Z,102182.63
2018-02-22T00:47:55.559Z,102183.08
2018-02-22T00:50:23.426Z,102178.59
2018-02-22T00:52:51.008Z,102181.73
2018-02-22T00:55:18.855Z,102181.19
2018-02-22T00:57:46.394Z,102176.93
2018-02-22T01:00:13.918Z,102179.44
2018-02-22T01:02:41.750Z,102180.91
2018-02-22T01:05:09.276Z,102174.88
2018-02-22T01:07:36.876Z,102174.14
2018-02-22T01:10:04.429Z,102177.97
2018-02-22T01:12:31.970Z,102165.91
2018-02-22T01:14:59.759Z,102174.14
2018-02-22T01:17:27.295Z,102184.67
2018-02-22T01:19:55.181Z,102177.78
2018-02-22T01:22:23.048Z,102177.62
2018-02-22T01:24:50.575Z,102182.62
2018-02-22T01:27:18.110Z,102178.33
2018-02-22T01:29:45.669Z,102174.64
2018-02-22T01:32:13.202Z,102174.02
2018-02-22T01:34:40.728Z,102180.25
2018-02-22T01:37:08.526Z,102175.41
2018-02-22T01:39:36.058Z,102175.73
2018-02-22T01:42:03.619Z,102178.47
2018-02-22T01:44:31.155Z,102179.86
2018-02-22T01:46:58.685Z,102183.63
2018-02-22T01:49:26.477Z,102177.85
2018-02-22T01:51:54.290Z,102179.44
2018-02-22T01:54:22.056Z,102178.55
2018-02-22T01:56:49.596Z,102179.17
2018-02-22T01:59:17.384Z,102183.97
2018-02-22T02:01:44.926Z,102176.73
2018-02-22T02:04:13.218Z,102174.56
2018-02-22T02:06:40.742Z,102180.30
2018-02-22T02:09:08.291Z,102176.61
2018-02-22T02:11:35.805Z,102175.45
2018-02-22T02:14:03.358Z,102178.47
2018-02-22T02:16:30.945Z,102179.94
2018-02-22T02:18:58.456Z,102171.39
2018-02-22T02:21:26.002Z,102168.22
2018-02-22T02:23:53.806Z,102169.69
2018-02-22T02:26:21.338Z,102165.40
2018-02-22T02:28:48.916Z,102162.42
2018-02-22T02:31:16.447Z,102167.69
2018-02-22T02:33:44.048Z,102163.05
2018-02-22T02:36:11.573Z,102163.39
2018-02-22T02:38:39.376Z,102163.66
2018-02-22T02:41:06.915Z,102164.28
2018-02-22T02:43:34.472Z,102164.97
2018-02-22T02:46:02.032Z,102167.99
2018-02-22T02:48:29.595Z,102162.11
2018-02-22T02:50:57.119Z,102165.87
2018-02-22T02:53:24.663Z,102156.89
2018-02-22T02:55:52.190Z,102155.92
2018-02-22T02:58:19.753Z,102150.66
2018-02-22T03:00:47.315Z,102152.71
2018-02-22T03:03:14.830Z,102150.34
2018-02-22T03:05:42.430Z,102156.46
2018-02-22T03:08:09.958Z,102158.98
2018-02-22T03:10:37.521Z,102155.57
2018-02-22T03:13:05.055Z,102145.40
2018-02-22T03:15:32.641Z,102147.18
2018-02-22T03:18:00.172Z,102147.48
2018-02-22T03:20:28.014Z,102143.20
2018-02-22T03:22:55.551Z,102145.13
2018-02-22T03:25:23.356Z,102146.72
2018-02-22T03:27:51.208Z,102136.16
2018-02-22T03:30:18.756Z,102136.38
2018-02-22T03:32:46.302Z,102137.47
2018-02-22T03:35:13.867Z,102136.23
2018-02-22T03:37:41.653Z,102140.10
2018-02-22T03:40:09.178Z,102144.98
2018-02-22T03:42:36.979Z,102144.28
2018-02-22T03:45:04.494Z,102143.08
2018-02-22T03:47:32.079Z,102142.92
2018-02-22T03:49:59.624Z,102143.34
2018-02-22T03:52:27.157Z,102138.98
2018-02-22T03:54:54.720Z,102139.36
2018-02-22T03:57:22.291Z,102136.20
2018-02-22T03:59:50.134Z,102139.98
2018-02-22T04:02:17.659Z,102133.21
2018-02-22T04:04:45.201Z,102134.30
2018-02-22T04:07:12.793Z,102130.58
2018-02-22T04:09:40.308Z,102135.69
2018-02-22T04:12:07.877Z,102133.12
2018-02-22T04:14:35.673Z,102142.13
2018-02-22T04:17:03.291Z,102140.93
2018-02-22T04:19:30.846Z,102147.03
2018-02-22T04:21:58.370Z,102148.56
2018-02-22T04:24:25.935Z,102148.25
2018-02-22T04:26:53.463Z,102149.18
2018-02-22T04:29:20.986Z,102152.13
2018-02-22T04:31:48.522Z,102155.29
2018-02-22T04:34:16.042Z,102157.75
2018-02-22T04:36:43.600Z,102158.10
2018-02-22T04:39:11.393Z,102158.64
2018-02-22T04:41:38.922Z,102158.56
2018-02-22T04:44:06.482Z,102167.38
2018-02-22T04:46:34.006Z,102162.91
2018-02-22T04:49:01.554Z,102159.93
2018-02-22T04:51:29.087Z,102160.75
2018-02-22T04:53:56.618Z,102160.48
2018-02-22T04:56:24.520Z,102154.20
2018-02-22T04:58:52.932Z,102161.67
2018-02-22T05:01:20.485Z,102161.34
2018-02-22T05:03:48.082Z,102159.27
2018-02-22T05:06:15.658Z,102162.67
2018-02-22T05:08:43.226Z,102158.87
2018-02-22T05:11:10.747Z,102163.28
2018-02-22T05:13:38.295Z,102159.50
2018-02-22T05:16:05.827Z,102159.73
2018-02-22T05:18:33.383Z,102159.28
2018-02-22T05:21:00.952Z,102163.58
2018-02-22T05:23:28.813Z,102157.55
2018-02-22T05:25:56.382Z,102167.38
2018-02-22T05:28:23.915Z,102168.09
2018-02-22T05:30:51.456Z,102170.78
2018-02-22T05:33:18.999Z,102169.91
2018-02-22T05:35:46.524Z,102167.34
2018-02-22T05:38:14.122Z,102171.86
2018-02-22T05:40:41.683Z,102170.41
2018-02-22T05:43:09.427Z,102171.86
2018-02-22T05:45:36.961Z,102171.11
2018-02-22T05:48:04.730Z,102167.41
2018-02-22T05:50:33.256Z,102163.98
2018-02-22T05:53:00.771Z,102167.28
2018-02-22T05:55:28.310Z,102174.62
2018-02-22T05:57:55.880Z,102176.47
2018-02-22T06:00:23.403Z,102178.39
2018-02-22T06:02:51.004Z,102174.23
2018-02-22T06:05:18.552Z,102172.47
2018-02-22T06:07:46.102Z,102172.60
2018-02-22T06:10:13.665Z,102172.99
2018-02-22T06:12:41.231Z,102164.23
2018-02-22T06:15:08.760Z,102158.27
2018-02-22T06:17:36.352Z,102156.34
2018-02-22T06:20:03.898Z,102153.33
2018-02-22T06:22:31.428Z,102160.43
2018-02-22T06:24:59.060Z,102166.57
2018-02-22T06:27:26.609Z,102175.84
2018-02-22T06:29:54.216Z,102180.91
2018-02-22T06:32:21.759Z,102182.30
2018-02-22T06:34:49.324Z,102184.14
2018-02-22T06:37:16.846Z,102184.84
2018-02-22T06:39:44.432Z,102188.30
2018-02-22T06:42:11.967Z,102188.00
2018-02-22T06:44:39.856Z,102189.57
2018-02-22T06:47:07.408Z,102187.37
2018-02-22T06:49:34.981Z,102186.13
2018-02-22T06:52:02.849Z,102191.56
2018-02-22T06:54:30.376Z,102195.03
2018-02-22T06:56:57.923Z,102189.92
2018-02-22T06:59:25.478Z,102190.28
2018-02-22T07:01:52.997Z,102191.34
2018-02-22T07:04:20.589Z,102187.23
2018-02-22T07:06:48.105Z,102188.54
2018-02-22T07:09:15.680Z,102196.91
2018-02-22T07:11:43.217Z,102196.80
2018-02-22T07:14:10.734Z,102196.91
2018-02-22T07:16:38.409Z,102201.28
2018-02-22T07:19:06.005Z,102207.59
2018-02-22T07:21:33.682Z,102206.15
2018-02-22T07:24:01.227Z,102210.59
2018-02-22T07:26:29.209Z,102214.13
2018-02-22T07:28:56.794Z,102215.27
2018-02-22T07:31:24.329Z,102210.94
2018-02-22T07:33:51.879Z,102212.96
2018-02-22T07:36:19.431Z,102218.06
2018-02-22T07:38:47.315Z,102215.34
2018-02-22T07:41:14.888Z,102212.89
2018-02-22T07:43:42.562Z,102216.58
2018-02-22T07:46:10.127Z,102214.80
2018-02-22T07:48:37.810Z,102212.80
2018-02-22T07:51:06.087Z,102211.58
2018-02-22T07:53:34.207Z,102214.70
2018-02-22T07:56:01.838Z,102213.54
2018-02-22T07:58:30.117Z,102213.22
2018-02-22T08:00:59.003Z,102210.51
2018-02-22T08:03:26.561Z,102214.17
2018-02-22T08:05:54.153Z,102218.49
2018-02-22T08:08:21.688Z,102217.67
2018-02-22T08:10:49.595Z,102216.67
2018-02-22T08:13:17.138Z,102215.40
2018-02-22T08:15:45.028Z,102217.10
2018-02-22T08:18:12.894Z,102212.62
2018-02-22T08:20:40.836Z,102210.78
2018-02-22T08:23:08.819Z,102213.61
2018-02-22T08:25:36.415Z,102210.86
2018-02-22T08:28:04.101Z,102209.05
2018-02-22T08:30:31.699Z,102209.05
2018-02-22T08:32:59.319Z,102206.63
2018-02-22T08:35:26.876Z,102210.20
2018-02-22T08:37:54.419Z,102203.09
2018-02-22T08:40:22.004Z,102201.77
2018-02-22T08:42:49.616Z,102202.81
2018-02-22T08:45:17.147Z,102206.92
2018-02-22T08:47:44.765Z,102215.81
2018-02-22T08:50:12.344Z,102211.83
2018-02-22T08:52:39.881Z,102211.56
2018-02-22T08:55:07.424Z,102210.94
2018-02-22T08:57:35.197Z,102211.36
2018-02-22T09:00:02.747Z,102207.25
2018-02-22T09:02:30.324Z,102206.09
2018-02-22T09:04:57.847Z,102208.27
2018-02-22T09:07:25.459Z,102209.45
2018-02-22T09:09:53.021Z,102204.45
2018-02-22T09:12:20.883Z,102199.48
2018-02-22T09:14:48.416Z,102196.93
2018-02-22T09:17:15.954Z,102200.00
2018-02-22T09:19:43.502Z,102199.81
2018-02-22T09:22:11.022Z,102200.62
2018-02-22T09:24:38.686Z,102200.63
2018-02-22T09:27:06.240Z,102195.41
2018-02-22T09:29:33.824Z,102190.00
2018-02-22T09:32:01.389Z,102188.91
2018-02-22T09:34:29.226Z,102189.80
2018-02-22T09:36:57.053Z,102186.94
2018-02-22T09:39:24.582Z,102187.95
2018-02-22T09:41:52.722Z,102189.15
2018-02-22T09:44:20.348Z,102184.77
2018-02-22T09:46:48.846Z,102189.10
2018-02-22T09:49:16.529Z,102185.23
2018-02-22T09:51:44.156Z,102182.35
2018-02-22T09:54:11.749Z,102184.56
2018-02-22T09:56:39.469Z,102188.58
2018-02-22T09:59:07.104Z,102189.50
2018-02-22T10:01:35.164Z,102182.91
2018-02-22T10:04:02.706Z,102191.64
2018-02-22T10:06:30.262Z,102190.11
2018-02-22T10:08:57.797Z,102185.36
2018-02-22T10:11:25.336Z,102185.61
2018-02-22T10:13:52.887Z,102182.95
2018-02-22T10:16:20.476Z,102189.84
2018-02-22T10:18:48.287Z,102182.28
2018-02-22T10:21:15.846Z,102177.11
2018-02-22T10:23:43.438Z,102179.19
2018-02-22T10:26:10.994Z,102174.80
2018-02-22T10:28:38.835Z,102178.89
2018-02-22T10:31:06.407Z,102179.74
2018-02-22T10:33:33.959Z,102175.67
2018-02-22T10:36:01.585Z,102176.25
2018-02-22T10:38:29.159Z,102177.11
2018-02-22T10:40:56.724Z,102175.73
2018-02-22T10:43:24.263Z,102173.58
2018-02-22T10:45:51.857Z,102173.53
2018-02-22T10:48:19.422Z,102172.63
2018-02-22T10:50:47.290Z,102174.20
2018-02-22T10:53:14.857Z,102172.62
2018-02-22T10:55:42.412Z,102163.70
2018-02-22T10:58:09.949Z,102168.52
2018-02-22T11:00:43.268Z,102168.85
2018-02-22T11:03:10.795Z,102165.55
2018-02-22T11:05:38.338Z,102163.91
2018-02-22T11:08:05.927Z,102161.34
2018-02-22T11:10:33.457Z,102155.12
2018-02-22T11:13:01.010Z,102161.80
2018-02-22T11:15:28.544Z,102158.86
2018-02-22T11:17:56.240Z,102159.45
2018-02-22T11:20:23.869Z,102159.70
2018-02-22T11:22:51.418Z,102155.22
2018-02-22T11:25:18.987Z,102157.78
2018-02-22T11:27:46.546Z,102153.91
2018-02-22T11:30:14.171Z,102152.09
2018-02-22T11:32:41.714Z,102147.91
2018-02-22T11:35:09.275Z,102143.44
2018-02-22T11:37:36.824Z,102142.23
2018-02-22T11:40:04.390Z,102142.34
2018-02-22T11:42:31.941Z,102133.91
2018-02-22T11:44:59.495Z,102132.70
2018-02-22T11:47:27.426Z,102136.94
2018-02-22T11:49:54.959Z,102136.94
2018-02-22T11:52:22.504Z,102131.36
2018-02-22T11:54:50.047Z,102123.59
2018-02-22T11:57:17.696Z,102121.81
2018-02-22T11:59:45.259Z,102118.05
2018-02-22T12:02:12.791Z,102125.41
2018-02-22T12:04:40.379Z,102116.16
2018-02-22T12:07:07.907Z,102117.45
2018-02-22T12:09:35.448Z,102116.17
2018-02-22T12:12:02.990Z,102113.41
2018-02-22T12:14:30.566Z,102108.98
2018-02-22T12:16:58.375Z,102106.55
2018-02-22T12:19:25.946Z,102099.00
2018-02-22T12:21:53.553Z,102107.34
2018-02-22T12:24:21.076Z,102106.61
2018-02-22T12:26:49.064Z,102104.33
2018-02-22T12:29:16.655Z,102099.49
2018-02-22T12:31:45.012Z,102098.84
2018-02-22T12:34:12.924Z,102103.67
2018-02-22T12:36:40.461Z,102103.17
2018-02-22T12:39:08.026Z,102101.80
2018-02-22T12:41:35.564Z,102103.97
2018-02-22T12:44:03.086Z,102098.70
2018-02-22T12:46:30.939Z,102094.97
2018-02-22T12:48:58.487Z,102092.03
2018-02-22T12:51:26.090Z,102095.98
2018-02-22T12:53:53.639Z,102090.73
2018-02-22T12:56:21.217Z,102087.42
2018-02-22T12:58:48.769Z,102088.05
2018-02-22T13:01:16.330Z,102083.05
2018-02-22T13:03:43.873Z,102082.38
2018-02-22T13:06:11.422Z,102076.57
2018-02-22T13:08:39.294Z,102080.13
2018-02-22T13:11:07.160Z,102074.06
2018-02-22T13:13:35.022Z,102079.59
2018-02-22T13:16:02.543Z,102074.49
2018-02-22T13:18:30.352Z,102069.67
2018-02-22T13:20:57.942Z,102068.77
2018-02-22T13:23:25.506Z,102069.06
2018-02-22T13:25:53.054Z,102070.67
2018-02-22T13:28:20.898Z,102059.63
2018-02-22T13:30:48.572Z,102054.00
2018-02-22T13:33:28.205Z,102060.45
2018-02-22T13:35:55.755Z,102059.08
2018-02-22T13:38:35.051Z,102055.45
2018-02-22T13:41:02.726Z,102047.70
2018-02-22T13:43:30.260Z,102041.64
2018-02-22T13:45:57.814Z,102049.63
2018-02-22T13:48:25.419Z,102048.46
2018-02-22T13:51:05.044Z,102040.05
2018-02-22T13:53:32.869Z,102037.55
2018-02-22T13:56:00.402Z,102036.02
2018-02-22T13:58:27.959Z,102034.52
2018-02-22T14:01:07.247Z,102030.45
2018-02-22T14:03:34.797Z,102032.56
2018-02-22T14:06:02.339Z,102029.73
2018-02-22T14:08:41.917Z,102028.00
2018-02-22T14:11:09.482Z,102028.95
2018-02-22T14:13:37.026Z,102024.44
2018-02-22T14:16:04.586Z,102029.95
2018-02-22T14:18:32.534Z,102034.08
2018-02-22T14:21:00.176Z,102036.97
2018-02-22T14:23:27.717Z,102028.52
2018-02-22T14:25:55.242Z,102034.81
2018-02-22T14:28:22.832Z,102034.88
2018-02-22T14:30:50.596Z,102035.83
2018-02-22T14:33:18.520Z,102034.70
2018-02-22T14:35:46.051Z,102034.70
2018-02-22T14:38:13.611Z,102025.82
2018-02-22T14:40:41.143Z,102027.91
2018-02-22T14:43:08.670Z,102021.89
2018-02-22T14:45:36.521Z,102030.55
2018-02-22T14:48:04.054Z,102025.45
2018-02-22T14:50:31.612Z,102026.34
2018-02-22T14:52:59.142Z,102026.75
2018-02-22T14:55:26.700Z,102032.54
2018-02-22T14:57:54.236Z,102037.32
2018-02-22T15:00:21.786Z,102035.98
2018-02-22T15:02:49.374Z,102030.36
2018-02-22T15:05:16.910Z,102037.28
2018-02-22T15:07:44.523Z,102028.48
2018-02-22T15:10:12.103Z,102032.77
2018-02-22T15:12:39.641Z,102034.29
2018-02-22T15:15:07.197Z,102031.92
2018-02-22T15:17:34.742Z,102032.92
2018-02-22T15:20:02.264Z,102034.09
2018-02-22T15:22:29.889Z,102036.59
2018-02-22T15:24:57.503Z,102038.43
2018-02-22T15:27:25.059Z,102031.92
2018-02-22T15:29:52.599Z,102037.03
2018-02-22T15:32:20.207Z,102031.41
2018-02-22T15:34:47.819Z,102037.39
2018-02-22T15:37:15.356Z,102031.41
2018-02-22T15:39:42.958Z,102038.02
2018-02-22T15:42:10.472Z,102038.52
2018-02-22T15:44:38.004Z,102036.69
2018-02-22T15:47:05.573Z,102040.55
2018-02-22T15:49:33.108Z,102035.55
2018-02-22T15:52:00.714Z,102033.58
2018-02-22T15:54:28.236Z,102035.28
2018-02-22T15:56:55.785Z,102038.77
2018-02-22T15:59:23.648Z,102037.54
2018-02-22T16:01:51.174Z,102040.20
2018-02-22T16:04:18.734Z,102032.13
2018-02-22T16:06:46.271Z,102038.22
2018-02-22T16:09:13.812Z,102034.91
2018-02-22T16:11:41.317Z,102037.03
2018-02-22T16:14:09.269Z,102034.78
2018-02-22T16:16:36.838Z,102033.06
2018-02-22T16:19:04.737Z,102039.61
2018-02-22T16:21:32.266Z,102040.36
2018-02-22T16:23:59.894Z,102033.06
2018-02-22T16:26:27.462Z,102036.98
2018-02-22T16:28:55.045Z,102034.95
2018-02-22T16:31:22.592Z,102039.69
2018-02-22T16:33:50.125Z,102035.77
2018-02-22T16:36:18.266Z,102036.42
2018-02-22T16:38:45.954Z,102040.81
2018-02-22T16:41:13.495Z,102043.89
2018-02-22T16:43:41.376Z,102045.18
2018-02-22T16:46:09.389Z,102049.58
2018-02-22T16:48:37.399Z,102043.26
2018-02-22T16:51:05.890Z,102051.11
2018-02-22T16:53:33.439Z,102053.81
2018-02-22T16:56:01.020Z,102045.80
2018-02-22T16:58:28.949Z,102046.25
2018-02-22T17:00:56.509Z,102041.61
2018-02-22T17:05:57.971Z,102041.45
2018-02-22T17:08:25.752Z,102047.81
2018-02-22T17:10:53.323Z,102051.33
2018-02-22T17:13:20.865Z,102052.09
2018-02-22T17:15:48.438Z,102056.61
2018-02-22T17:18:16.035Z,102060.17
2018-02-22T17:20:43.645Z,102059.11
2018-02-22T17:23:11.213Z,102058.97
2018-02-22T17:25:38.189Z,102063.28
2018-02-22T17:28:11.241Z,102056.97
2018-02-22T17:30:44.156Z,102053.16
2018-02-22T17:33:11.768Z,102056.24
2018-02-22T17:38:47.515Z,102052.45
2018-02-22T17:41:18.668Z,102055.85
2018-02-22T17:43:46.241Z,102054.95
2018-02-22T17:46:13.964Z,102059.43
2018-02-22T17:48:41.498Z,102062.64
2018-02-22T17:51:09.048Z,102061.45
2018-02-22T17:53:36.682Z,102069.61
2018-02-22T17:56:04.271Z,102064.22
2018-02-22T17:58:31.851Z,102062.27
2018-02-22T18:00:59.454Z,102063.63
2018-02-22T18:03:27.134Z,102061.16
2018-02-22T18:05:54.792Z,102069.58
2018-02-22T18:08:22.343Z,102068.91
2018-02-22T18:10:49.970Z,102071.28
2018-02-22T18:13:17.496Z,102076.55
2018-02-22T18:15:45.238Z,102076.72
2018-02-22T18:18:13.587Z,102078.34
2018-02-22T18:20:41.184Z,102077.12
2018-02-22T18:23:08.809Z,102082.34
2018-02-22T18:25:36.379Z,102081.50
2018-02-22T18:28:04.273Z,102084.19
2018-02-22T18:30:31.828Z,102091.33
2018-02-22T18:32:59.371Z,102088.14
2018-02-22T18:35:27.257Z,102085.59
2018-02-22T18:37:59.704Z,102091.89
2018-02-22T18:40:32.869Z,102091.41
2018-02-22T18:43:00.618Z,102091.63
2018-02-22T18:45:28.175Z,102097.87
2018-02-22T18:47:55.700Z,102095.84
2018-02-22T18:50:23.571Z,102097.28
2018-02-22T18:52:51.097Z,102097.79
2018-02-22T18:55:18.729Z,102095.70
2018-02-22T18:57:46.304Z,102101.78
2018-02-22T19:00:14.121Z,102099.53
2018-02-22T19:02:41.713Z,102093.07
2018-02-22T19:05:09.293Z,102092.90
2018-02-22T19:07:37.235Z,102090.73
2018-02-22T19:10:04.829Z,102089.84
2018-02-22T19:12:32.367Z,102092.90
2018-02-22T19:15:00.177Z,102089.92
2018-02-22T19:17:27.816Z,102081.47
2018-02-22T19:19:55.755Z,102089.59
2018-02-22T19:22:23.309Z,102083.38
2018-02-22T19:24:51.268Z,102083.80
2018-02-22T19:27:18.796Z,102078.88
2018-02-22T19:29:46.591Z,102078.23
2018-02-22T19:32:14.456Z,102076.08
2018-02-22T19:34:42.350Z,102077.27
2018-02-22T19:37:10.196Z,102085.38
2018-02-22T19:39:37.862Z,102070.67
2018-02-22T19:42:05.453Z,102081.64
2018-02-22T19:44:33.283Z,102077.30
2018-02-22T19:47:00.844Z,102082.02
2018-02-22T19:49:28.831Z,102072.33
2018-02-22T19:51:56.392Z,102077.05
2018-02-22T19:54:23.976Z,102078.11
2018-02-22T19:56:51.523Z,102080.31
2018-02-22T19:59:19.119Z,102085.50
2018-02-22T20:01:46.657Z,102083.42
2018-02-22T20:04:14.362Z,102089.33
2018-02-22T20:06:42.040Z,102080.44
2018-02-22T20:09:09.599Z,102091.41
2018-02-22T20:11:37.187Z,102091.66
2018-02-22T20:14:05.051Z,102091.06
2018-02-22T20:16:32.831Z,102087.87
2018-02-22T20:19:00.824Z,102087.77
2018-02-22T20:21:28.651Z,102092.41
2018-02-22T20:23:56.260Z,102095.94
2018-02-22T20:26:23.803Z,102087.23
2018-02-22T20:28:51.401Z,102086.84
2018-02-22T20:31:19.009Z,102089.44
2018-02-22T20:33:46.634Z,102088.34
2018-02-22T20:36:14.226Z,102086.51
2018-02-22T20:38:42.557Z,102091.73
2018-02-22T20:41:10.644Z,102099.70
2018-02-22T20:43:38.682Z,102098.88
2018-02-22T20:46:06.274Z,102101.37
2018-02-22T20:48:34.795Z,102106.22
2018-02-22T20:51:02.965Z,102103.20
2018-02-22T20:53:31.266Z,102101.37
2018-02-22T20:55:59.334Z,102102.52
2018-02-22T20:58:27.644Z,102103.03
2018-02-22T21:00:55.309Z,102105.77
2018-02-22T21:03:26.471Z,102105.42
2018-02-22T21:05:54.672Z,102104.20
2018-02-22T21:08:22.334Z,102105.25
2018-02-22T21:10:50.964Z,102109.38
2018-02-22T21:13:20.662Z,102109.42
2018-02-22T21:15:48.291Z,102110.27
2018-02-22T21:18:15.825Z,102112.00
2018-02-22T21:20:44.120Z,102113.03
2018-02-22T21:23:12.378Z,102117.23
2018-02-22T21:25:42.137Z,102112.64
2018-02-22T21:28:10.994Z,102117.74
2018-02-22T21:30:38.812Z,102113.80
2018-02-22T21:35:44.275Z,102123.14
2018-02-22T21:38:12.051Z,102124.36
2018-02-22T21:40:39.695Z,102119.60
2018-02-22T21:43:07.538Z,102115.47
2018-02-22T21:45:35.087Z,102122.53
2018-02-22T21:48:02.732Z,102124.40
2018-02-22T21:50:30.450Z,102125.67
2018-02-22T21:52:57.996Z,102119.36
2018-02-22T21:55:25.634Z,102118.03
2018-02-22T21:57:53.199Z,102122.39
2018-02-22T22:00:20.858Z,102120.70
2018-02-22T22:02:48.405Z,102119.41
2018-02-22T22:05:15.930Z,102127.08
2018-02-22T22:07:43.756Z,102129.61
2018-02-22T22:10:11.280Z,102117.86
2018-02-22T22:12:38.821Z,102124.22
2018-02-22T22:15:06.353Z,102130.34
2018-02-22T22:17:33.905Z,102126.42
2018-02-22T22:20:01.440Z,102124.42
2018-02-22T22:22:29.218Z,102123.31
2018-02-22T22:24:56.755Z,102127.69
2018-02-22T22:27:24.284Z,102132.59
2018-02-22T22:29:51.831Z,102134.82
2018-02-22T22:32:19.346Z,102128.80
2018-02-22T22:34:46.904Z,102129.70
2018-02-22T22:37:14.427Z,102126.50
2018-02-22T22:39:42.247Z,102125.03
2018-02-22T22:42:09.786Z,102135.00
2018-02-22T22:44:37.305Z,102129.19
2018-02-22T22:47:04.862Z,102127.55
2018-02-22T22:49:32.379Z,102122.08
2018-02-22T22:51:59.950Z,102121.59
2018-02-22T22:54:27.468Z,102112.72
2018-02-22T22:56:54.999Z,102114.69
2018-02-22T22:59:22.599Z,102112.03
2018-02-22T23:01:50.142Z,102120.76
2018-02-22T23:04:17.779Z,102122.92
2018-02-22T23:06:45.316Z,102119.77
2018-02-22T23:09:13.179Z,102116.83
2018-02-22T23:11:40.727Z,102110.12
2018-02-22T23:14:08.252Z,102114.04
2018-02-22T23:16:36.167Z,102115.98
2018-02-22T23:19:03.945Z,102119.08
2018-02-22T23:21:31.485Z,102117.07
2018-02-22T23:23:59.369Z,102113.41
2018-02-22T23:26:26.895Z,102108.91
2018-02-22T23:28:54.464Z,102104.17
2018-02-22T23:31:22.257Z,102109.27
2018-02-22T23:33:49.794Z,102106.27
2018-02-22T23:36:17.582Z,102109.37
2018-02-22T23:38:46.554Z,102109.22
2018-02-22T23:41:20.081Z,102112.98
2018-02-22T23:43:47.643Z,102103.06
2018-02-22T23:46:15.243Z,102103.66
2018-02-22T23:48:43.162Z,102105.02
2018-02-22T23:51:11.042Z,102109.86
2018-02-22T23:53:38.591Z,102110.16
2018-02-22T23:56:06.111Z,102110.89
2018-02-22T23:58:33.633Z,102115.93
